Česky Dansk Deutsch English Español Suomi Français Magyar Italiano Nederlands norsk Polski Português svenska Türkçe

 

Het Weer

Gamboma (Congo)

18:00, 11 juni 2014 (GMT)

NWNNE
WE
SWSSE
Home            
Gamboma M'Pouya Djambala Makoua Bandundu Inongo Franceville / Mvengue Brazzaville / Maya-Maya Kinshasa / N'Djili Moanda Mouyondzi Mbandaka Sibiti Kenge Lastoursville Mekambo Ouesso Makabana Makokou Loubomo Impfondo Souanke Inga

Om een weerknop op uw website of weblog te plaatsen, copieer onderstaande code en plak die in uw pagina. In het eerste vakje staat HTML-code, in het tweede vakje UBB-code.


Add to Google

Details

Wind speed:2 bf, 6 kn, 3.1 m/s, 6.9 miles/h, 11.1 km/h
Wind direction:E, 100°
Visibility:Greater than 10000 m, 10 km, 32800 ft, 6.2 miles
Clouds:Ein wenig bewölkt at 3000 ft, 914 m
Durchbrochene Bewölkung at 13300 ft, 4054 m
Het Weer:moderate thunderstorm
Temperature:29°C, 84°F
Gefühlte Temperatur:33°C, 92°F
Dew-point:24°C, 75°F
Atmospheric pressure:1009 hPa, 756.8 mmHg, 29.80 inHg, 0.996 atm
Relative humidity:74.5 %
METAR:FCOG 111800Z 10006KT 9999 TS FEW030CB BKN133 29/24 Q1009

Snelkoppelingen

Actuele weersinformatie van de hele wereld. Voeg locaties toe met het plus (+) symbool. Deze snelkoppelingen kunnen worden toegevoegd aan Google.

Lid van de Technetium groep

website free tracking
StatCounter NetStat W3C Validator

15-12-2018 10:12:23
astro.technetium.be money.technetium.be phote.technetium.be tafeltennistafel.technetium.be www.ligfiets.net